Time;durP1;ratioP1;P1;durP2;ratioP2;P2;SDS_P1;SDS_P2;PMS_P1;PMS_P2;Temp;Humidity;BMP_temperature;BMP_pressure;BME280_temperature;BME280_humidity;BME280_pressure;Samples;Min_cycle;Max_cycle;Signal;HPM_P1;HPM_P2
2023/07/04 00:01:25;;;;;;;7.73;3.20;;;20.30;71.70;;;;;;5082690;28;20496;-80
2023/07/04 00:03:57;;;;;;;9.00;3.07;;;20.30;71.80;;;;;;5087226;28;20452;-81
2023/07/04 00:06:28;;;;;;;6.20;2.77;;;20.20;72.00;;;;;;5086124;28;20456;-81
2023/07/04 00:08:56;;;;;;;7.67;3.63;;;20.20;72.00;;;;;;5084526;28;20444;-81
2023/07/04 00:11:24;;;;;;;10.23;2.77;;;20.20;72.00;;;;;;5083171;28;20839;-80
2023/07/04 00:13:52;;;;;;;9.70;3.23;;;20.20;72.20;;;;;;5080833;28;20890;-81
2023/07/04 00:16:23;;;;;;;6.30;2.50;;;20.20;72.20;;;;;;5083871;28;20458;-80
2023/07/04 00:18:51;;;;;;;8.70;3.57;;;20.20;72.40;;;;;;5084127;28;20513;-78
2023/07/04 00:21:20;;;;;;;8.97;4.03;;;20.20;72.40;;;;;;5084575;28;20458;-80
2023/07/04 00:23:52;;;;;;;5.57;2.73;;;20.20;72.50;;;;;;5086196;28;20957;-81
2023/07/04 00:26:23;;;;;;;8.70;3.07;;;20.20;72.50;;;;;;5081356;28;20454;-79
2023/07/04 00:28:51;;;;;;;9.53;3.27;;;20.10;72.50;;;;;;5083562;28;20773;-81
2023/07/04 00:31:23;;;;;;;7.80;3.03;;;20.20;72.60;;;;;;5084285;28;20477;-79
2023/07/04 00:33:52;;;;;;;8.57;3.30;;;20.20;72.60;;;;;;5064160;28;20472;-77
2023/07/04 00:36:22;;;;;;;6.00;2.93;;;20.10;72.60;;;;;;5082357;28;20456;-79
2023/07/04 00:38:56;;;;;;;7.43;3.00;;;20.10;72.70;;;;;;5086755;28;20544;-79
2023/07/04 00:41:26;;;;;;;6.53;3.07;;;20.10;72.70;;;;;;5085007;28;20457;-79
2023/07/04 00:43:58;;;;;;;6.70;3.47;;;20.10;72.80;;;;;;5084729;28;20456;-79
2023/07/04 00:46:38;;;;;;;10.83;3.67;;;20.10;72.80;;;;;;5064739;28;20874;-79
2023/07/04 00:49:18;;;;;;;5.73;2.70;;;20.10;72.90;;;;;;5065797;28;21084;-79
2023/07/04 00:51:59;;;;;;;7.73;3.33;;;20.10;72.80;;;;;;5080865;28;20555;-80
2023/07/04 00:54:35;;;;;;;8.80;3.60;;;20.10;72.90;;;;;;5082155;28;20438;-80
2023/07/04 00:57:06;;;;;;;7.13;3.10;;;20.10;72.90;;;;;;5086094;28;20945;-79
2023/07/04 00:59:38;;;;;;;6.90;3.10;;;20.10;72.80;;;;;;5062297;28;20555;-80
2023/07/04 01:02:07;;;;;;;6.87;3.57;;;20.10;72.80;;;;;;5081273;28;20479;-80
2023/07/04 01:04:35;;;;;;;6.30;3.27;;;20.10;72.90;;;;;;5081983;28;20468;-80
2023/07/04 01:07:14;;;;;;;7.10;3.20;;;20.00;72.90;;;;;;5068482;28;21202;-80
2023/07/04 01:09:46;;;;;;;6.67;2.80;;;20.00;73.00;;;;;;5074293;28;20465;-80
2023/07/04 01:12:14;;;;;;;9.77;3.40;;;20.00;73.00;;;;;;5083136;28;20547;-81
2023/07/04 01:14:42;;;;;;;7.87;2.83;;;20.00;73.00;;;;;;5075590;28;20460;-80
2023/07/04 01:17:10;;;;;;;7.23;2.87;;;20.00;73.00;;;;;;5082768;28;20468;-81
2023/07/04 01:19:39;;;;;;;9.90;3.30;;;20.00;73.10;;;;;;5060048;28;20464;-81
2023/07/04 01:22:24;;;;;;;8.70;3.30;;;19.90;73.10;;;;;;5067103;28;20554;-80
2023/07/04 01:25:02;;;;;;;6.07;2.70;;;20.00;73.20;;;;;;5064174;28;20613;-80
2023/07/04 01:27:32;;;;;;;7.37;3.40;;;20.00;73.20;;;;;;5086016;28;20455;-80
2023/07/04 01:30:04;;;;;;;7.27;2.97;;;19.90;73.20;;;;;;5064313;28;20567;-82
2023/07/04 01:32:41;;;;;;;7.40;3.10;;;19.90;73.20;;;;;;5066479;28;20464;-80
2023/07/04 01:35:12;;;;;;;9.60;3.13;;;19.90;73.20;;;;;;5081983;28;20966;-80
2023/07/04 01:37:41;;;;;;;6.60;3.10;;;19.90;73.20;;;;;;5083605;28;20467;-81
2023/07/04 01:40:10;;;;;;;7.70;3.40;;;19.90;73.30;;;;;;5067516;28;20987;-80
2023/07/04 01:42:40;;;;;;;6.70;2.87;;;19.90;73.30;;;;;;5061595;28;20523;-81
2023/07/04 01:45:09;;;;;;;6.93;3.33;;;19.90;73.20;;;;;;5077890;28;20464;-80
2023/07/04 01:47:38;;;;;;;6.40;3.20;;;19.80;73.20;;;;;;5064249;28;20464;-79
2023/07/04 01:50:08;;;;;;;7.03;3.20;;;19.80;73.30;;;;;;5082885;28;20476;-81
2023/07/04 01:52:37;;;;;;;7.27;3.33;;;19.80;73.30;;;;;;5086951;28;20991;-79
2023/07/04 01:55:06;;;;;;;7.00;3.03;;;19.70;73.40;;;;;;5074773;28;20446;-79
2023/07/04 01:57:34;;;;;;;8.50;3.33;;;19.70;73.40;;;;;;5076259;28;20464;-79
2023/07/04 02:00:08;;;;;;;9.13;3.50;;;19.70;73.50;;;;;;5082306;28;20966;-79
2023/07/04 02:02:54;;;;;;;9.13;3.67;;;19.70;73.50;;;;;;5084368;28;20468;-79
2023/07/04 02:05:22;;;;;;;9.67;3.47;;;19.70;73.50;;;;;;5088435;28;20578;-80
2023/07/04 02:07:50;;;;;;;7.50;3.17;;;19.70;73.40;;;;;;5086463;28;20459;-80
2023/07/04 02:10:18;;;;;;;6.50;3.03;;;19.60;73.40;;;;;;5071151;28;20465;-80
2023/07/04 02:12:46;;;;;;;8.93;3.77;;;19.60;73.40;;;;;;5070517;28;20939;-80
2023/07/04 02:15:15;;;;;;;7.20;3.70;;;19.60;73.40;;;;;;5069616;28;20463;-79
2023/07/04 02:17:43;;;;;;;7.70;3.87;;;19.50;73.30;;;;;;5086163;28;20468;-81
2023/07/04 02:20:12;;;;;;;8.80;3.50;;;19.40;73.30;;;;;;5086458;28;20468;-81
2023/07/04 02:22:43;;;;;;;7.97;3.30;;;19.40;73.40;;;;;;5089597;28;21054;-81
2023/07/04 02:25:11;;;;;;;6.07;2.87;;;19.40;73.50;;;;;;5074189;28;20465;-79
2023/07/04 02:27:40;;;;;;;9.20;3.60;;;19.40;73.50;;;;;;5086037;28;20528;-81
2023/07/04 02:30:09;;;;;;;7.23;2.97;;;19.40;73.70;;;;;;5090078;28;20470;-81
2023/07/04 02:32:56;;;;;;;7.03;3.23;;;19.40;73.70;;;;;;5074545;28;20462;-80
2023/07/04 02:35:26;;;;;;;6.87;2.90;;;19.40;73.70;;;;;;5059497;28;20463;-80
2023/07/04 02:37:55;;;;;;;6.60;3.10;;;19.30;73.80;;;;;;5085866;28;20884;-81
2023/07/04 02:40:24;;;;;;;9.27;3.50;;;19.30;73.90;;;;;;5084199;28;20993;-81
2023/07/04 02:42:52;;;;;;;6.30;3.10;;;19.30;74.00;;;;;;5071259;28;20456;-80
2023/07/04 02:45:23;;;;;;;9.90;3.60;;;19.40;74.00;;;;;;5066665;28;20459;-80
2023/07/04 02:47:52;;;;;;;6.20;2.90;;;19.30;74.10;;;;;;5072402;28;20541;-81
2023/07/04 02:50:23;;;;;;;7.37;3.20;;;19.30;74.10;;;;;;5083864;28;20450;-80
2023/07/04 02:52:52;;;;;;;8.37;3.70;;;19.30;74.10;;;;;;5070151;28;20457;-82
2023/07/04 02:55:20;;;;;;;6.77;3.30;;;19.30;74.10;;;;;;5068387;28;20482;-82
2023/07/04 02:57:48;;;;;;;8.93;3.63;;;19.40;74.10;;;;;;5063673;28;20444;-79
2023/07/04 03:00:17;;;;;;;9.13;3.43;;;19.30;73.90;;;;;;5069823;28;20506;-80
2023/07/04 03:02:47;;;;;;;6.37;2.77;;;19.30;73.80;;;;;;5071869;28;20471;-80
2023/07/04 03:05:17;;;;;;;6.00;3.00;;;19.20;73.80;;;;;;5064862;28;20552;-80
2023/07/04 03:07:46;;;;;;;9.50;3.67;;;19.10;73.70;;;;;;5075007;28;21024;-78
2023/07/04 03:10:17;;;;;;;6.70;3.23;;;19.10;73.70;;;;;;5057395;28;20460;-80
2023/07/04 03:12:45;;;;;;;7.40;3.27;;;18.90;73.70;;;;;;5062991;28;20474;-82
2023/07/04 03:15:14;;;;;;;9.43;3.40;;;18.90;73.80;;;;;;5070045;28;20481;-80
2023/07/04 03:17:47;;;;;;;10.13;3.47;;;18.80;73.90;;;;;;5068250;28;20537;-81
2023/07/04 03:20:16;;;;;;;8.00;3.27;;;18.80;74.00;;;;;;5067907;28;20870;-80
2023/07/04 03:22:49;;;;;;;8.20;3.30;;;18.80;74.10;;;;;;5069327;28;20521;-81
2023/07/04 03:25:17;;;;;;;7.93;3.93;;;18.80;74.10;;;;;;5086097;28;20467;-80
2023/07/04 03:27:49;;;;;;;9.00;4.17;;;18.80;74.00;;;;;;5068195;28;20492;-78
2023/07/04 03:30:21;;;;;;;7.50;3.80;;;18.70;74.10;;;;;;5066106;28;21040;-78
2023/07/04 03:32:53;;;;;;;7.43;3.57;;;18.70;74.30;;;;;;5069179;28;20715;-81
2023/07/04 03:35:21;;;;;;;8.30;4.10;;;18.70;74.40;;;;;;5086699;28;20463;-80
2023/07/04 03:37:50;;;;;;;6.97;3.87;;;18.70;74.50;;;;;;5070827;28;20458;-78
2023/07/04 03:40:19;;;;;;;10.07;4.30;;;18.80;74.70;;;;;;5085203;28;20474;-79
2023/07/04 03:42:46;;;;;;;7.20;3.50;;;18.80;74.70;;;;;;5083589;28;20927;-79
2023/07/04 03:45:17;;;;;;;8.00;3.63;;;18.80;74.80;;;;;;5076578;28;20828;-81
2023/07/04 03:47:46;;;;;;;8.07;3.53;;;18.90;74.80;;;;;;5071399;28;20502;-80
2023/07/04 03:50:16;;;;;;;7.97;3.80;;;18.90;74.80;;;;;;5046953;28;20934;-79
2023/07/04 03:52:44;;;;;;;8.00;3.73;;;18.90;74.90;;;;;;5048907;28;20472;-81
2023/07/04 03:55:15;;;;;;;6.63;3.13;;;18.90;74.90;;;;;;5052439;28;20857;-79
2023/07/04 03:57:42;;;;;;;9.47;4.13;;;18.90;74.80;;;;;;5049441;28;21024;-78
2023/07/04 04:00:12;;;;;;;8.60;4.00;;;18.90;74.90;;;;;;5059046;28;20454;-79
2023/07/04 04:02:55;;;;;;;7.50;3.53;;;18.90;74.90;;;;;;5062370;28;20449;-78
2023/07/04 04:05:24;;;;;;;9.53;4.00;;;19.00;75.00;;;;;;5049284;28;20459;-80
2023/07/04 04:07:52;;;;;;;8.67;3.63;;;19.00;75.00;;;;;;5062451;28;20475;-78
2023/07/04 04:10:21;;;;;;;8.07;3.60;;;19.00;75.10;;;;;;5065576;28;20816;-78
2023/07/04 04:12:49;;;;;;;10.33;4.33;;;19.00;75.10;;;;;;5052092;28;20479;-80
2023/07/04 04:15:17;;;;;;;6.93;3.30;;;19.00;75.00;;;;;;5064703;28;20468;-78
2023/07/04 04:17:45;;;;;;;8.67;4.30;;;19.10;75.00;;;;;;5069301;28;20535;-81
2023/07/04 04:20:13;;;;;;;8.70;3.53;;;19.10;75.10;;;;;;5065567;28;20474;-78
2023/07/04 04:22:45;;;;;;;7.53;3.50;;;19.10;75.10;;;;;;5061108;28;20467;-78
2023/07/04 04:25:13;;;;;;;9.20;3.43;;;19.20;75.10;;;;;;5063829;28;20467;-77
2023/07/04 04:27:46;;;;;;;8.00;3.90;;;19.20;75.00;;;;;;5065383;28;21017;-79
2023/07/04 04:30:15;;;;;;;7.67;4.00;;;19.30;75.00;;;;;;5065048;28;20454;-83
2023/07/04 04:32:44;;;;;;;7.97;3.70;;;19.30;75.10;;;;;;5064569;28;20958;-78
2023/07/04 04:35:13;;;;;;;7.47;3.60;;;19.40;75.10;;;;;;5061381;28;20463;-81
2023/07/04 04:37:41;;;;;;;7.97;3.93;;;19.50;74.90;;;;;;5050947;28;20462;-78
2023/07/04 04:40:10;;;;;;;7.30;3.97;;;19.60;74.90;;;;;;5063158;28;20471;-80
2023/07/04 04:42:39;;;;;;;8.83;3.43;;;19.60;74.80;;;;;;5046943;28;20465;-80
2023/07/04 04:45:11;;;;;;;7.77;3.63;;;19.70;74.80;;;;;;5059342;28;20481;-83
2023/07/04 04:47:39;;;;;;;7.80;3.50;;;19.80;74.70;;;;;;5064086;28;20473;-81
2023/07/04 04:50:08;;;;;;;9.07;4.00;;;19.90;74.60;;;;;;5057273;28;20480;-83
2023/07/04 04:52:37;;;;;;;8.40;3.80;;;20.00;74.50;;;;;;5067834;28;20454;-82
2023/07/04 04:55:07;;;;;;;8.80;3.80;;;20.10;74.50;;;;;;5065173;28;20472;-82
2023/07/04 04:57:35;;;;;;;6.60;3.53;;;20.20;74.40;;;;;;5086885;28;20820;-81
2023/07/04 05:00:07;;;;;;;10.50;3.77;;;20.30;74.20;;;;;;5086830;28;20457;-80
2023/07/04 05:02:37;;;;;;;11.50;4.07;;;20.40;74.10;;;;;;5079364;28;20460;-81
2023/07/04 05:05:06;;;;;;;8.90;3.50;;;20.50;73.80;;;;;;5086740;28;20464;-82
2023/07/04 05:07:34;;;;;;;12.30;4.40;;;20.60;73.70;;;;;;5071942;28;20472;-80
2023/07/04 05:10:04;;;;;;;7.43;4.20;;;20.70;73.60;;;;;;5079464;28;21140;-82
2023/07/04 05:12:34;;;;;;;10.73;4.33;;;20.80;73.40;;;;;;5082695;28;20492;-82
2023/07/04 05:15:02;;;;;;;12.00;4.30;;;20.80;73.20;;;;;;5082463;28;20449;-80
2023/07/04 05:17:33;;;;;;;10.27;4.07;;;20.90;73.10;;;;;;5087419;28;21053;-80
2023/07/04 05:20:02;;;;;;;10.80;3.50;;;21.00;72.90;;;;;;5081774;28;20687;-81
2023/07/04 05:22:30;;;;;;;8.77;4.10;;;21.10;72.80;;;;;;5072274;28;20452;-83
2023/07/04 05:24:58;;;;;;;8.10;4.00;;;21.20;72.70;;;;;;5069994;28;20461;-82
2023/07/04 05:27:26;;;;;;;9.90;3.70;;;21.30;72.50;;;;;;5066943;28;20473;-79
2023/07/04 05:29:54;;;;;;;10.63;3.60;;;21.40;72.20;;;;;;5083489;28;20466;-82
2023/07/04 05:32:22;;;;;;;13.13;5.20;;;21.40;72.10;;;;;;5082763;28;20481;-81
2023/07/04 05:34:50;;;;;;;7.97;4.07;;;21.50;72.00;;;;;;5087044;28;20495;-82
2023/07/04 05:37:20;;;;;;;11.90;4.30;;;21.70;71.80;;;;;;5082461;28;20838;-82
2023/07/04 05:39:51;;;;;;;9.30;4.20;;;21.80;71.80;;;;;;5085848;28;20544;-79
2023/07/04 05:42:20;;;;;;;9.37;4.23;;;21.90;72.00;;;;;;5067106;28;20478;-82
2023/07/04 05:44:49;;;;;;;10.10;3.97;;;22.20;71.90;;;;;;5084521;28;20464;-80
2023/07/04 05:47:17;;;;;;;10.00;4.10;;;22.80;71.10;;;;;;5080144;28;20555;-81
2023/07/04 05:49:45;;;;;;;9.37;4.00;;;23.60;69.60;;;;;;5086546;28;20453;-81
2023/07/04 05:52:14;;;;;;;8.57;3.70;;;24.50;67.90;;;;;;5082216;28;20457;-80
2023/07/04 05:54:43;;;;;;;11.70;4.20;;;25.20;66.60;;;;;;5079592;28;20472;-82
2023/07/04 05:57:13;;;;;;;10.33;4.13;;;25.80;65.30;;;;;;5080800;28;20457;-81
2023/07/04 05:59:40;;;;;;;13.60;5.03;;;26.40;64.50;;;;;;5069890;28;20466;-81
2023/07/04 06:02:08;;;;;;;10.33;4.70;;;26.90;63.70;;;;;;5082455;28;20487;-80
2023/07/04 06:04:36;;;;;;;10.07;4.43;;;27.30;62.80;;;;;;5085518;28;20492;-80
2023/07/04 06:07:05;;;;;;;10.73;4.67;;;27.70;62.10;;;;;;5070854;28;20456;-81
2023/07/04 06:09:33;;;;;;;8.13;3.70;;;28.00;61.30;;;;;;5082585;28;20468;-80
2023/07/04 06:12:03;;;;;;;10.13;4.00;;;28.30;60.30;;;;;;5081845;28;20931;-81
2023/07/04 06:14:31;;;;;;;11.73;4.47;;;28.60;59.50;;;;;;5080587;28;20635;-83
2023/07/04 06:17:00;;;;;;;9.07;4.63;;;28.70;58.70;;;;;;5079778;28;20453;-80
2023/07/04 06:19:29;;;;;;;9.97;4.30;;;28.50;58.50;;;;;;5069824;28;20461;-80
2023/07/04 06:21:56;;;;;;;13.93;5.20;;;28.10;58.40;;;;;;5083135;28;20463;-81
2023/07/04 06:24:25;;;;;;;14.13;6.47;;;27.70;58.30;;;;;;5088797;28;20705;-81
2023/07/04 06:26:53;;;;;;;11.20;5.33;;;27.30;58.50;;;;;;5085221;28;20457;-81
2023/07/04 06:29:22;;;;;;;10.07;4.40;;;26.90;58.50;;;;;;5087455;28;20484;-84
2023/07/04 06:31:50;;;;;;;10.07;4.97;;;26.40;58.80;;;;;;5086011;28;20480;-82
2023/07/04 06:34:18;;;;;;;13.37;4.63;;;26.10;59.10;;;;;;5067339;28;20468;-83
2023/07/04 06:36:49;;;;;;;11.40;4.10;;;25.70;59.50;;;;;;5082550;28;20448;-81
2023/07/04 06:39:17;;;;;;;11.07;5.47;;;25.30;59.80;;;;;;5084265;28;20457;-81
2023/07/04 06:41:45;;;;;;;10.17;4.77;;;24.90;60.20;;;;;;5076980;28;20449;-82
2023/07/04 06:44:14;;;;;;;11.17;5.07;;;24.60;60.30;;;;;;5085698;28;20453;-83
2023/07/04 06:46:44;;;;;;;18.60;5.80;;;24.20;60.60;;;;;;5067294;28;20442;-81
2023/07/04 06:49:12;;;;;;;15.57;4.70;;;23.90;60.90;;;;;;5085107;28;20547;-80
2023/07/04 06:51:40;;;;;;;13.73;4.73;;;23.70;61.10;;;;;;5088942;28;20453;-80
2023/07/04 06:54:08;;;;;;;15.03;4.43;;;23.50;61.30;;;;;;5088252;28;20453;-81
2023/07/04 06:56:37;;;;;;;11.80;5.00;;;23.30;61.50;;;;;;5089662;28;20444;-81
2023/07/04 06:59:06;;;;;;;14.33;5.50;;;23.10;61.80;;;;;;5085885;28;20443;-80
2023/07/04 07:01:34;;;;;;;10.67;4.97;;;23.00;62.00;;;;;;5084272;28;20473;-79
2023/07/04 07:04:04;;;;;;;11.40;5.17;;;22.90;62.20;;;;;;5073178;28;20457;-83
2023/07/04 07:06:33;;;;;;;10.77;4.33;;;22.80;62.40;;;;;;5086182;28;20480;-83
2023/07/04 07:09:03;;;;;;;12.27;4.70;;;22.70;62.50;;;;;;5088095;28;20465;-79
2023/07/04 07:11:31;;;;;;;11.27;4.63;;;22.70;62.60;;;;;;5090602;28;20449;-81
2023/07/04 07:13:59;;;;;;;13.20;4.80;;;22.70;62.70;;;;;;5068518;28;20463;-83
2023/07/04 07:16:27;;;;;;;13.73;4.70;;;22.70;62.70;;;;;;5088832;28;20453;-82
2023/07/04 07:18:56;;;;;;;9.60;4.37;;;22.60;62.80;;;;;;5084319;28;20438;-80
2023/07/04 07:21:27;;;;;;;11.37;4.83;;;22.60;62.80;;;;;;5082782;28;20453;-82
2023/07/04 07:23:56;;;;;;;12.13;5.10;;;22.50;62.50;;;;;;5088250;28;20470;-82
2023/07/04 07:26:27;;;;;;;13.80;4.30;;;22.50;62.30;;;;;;5068294;28;20459;-81
2023/07/04 07:28:56;;;;;;;13.23;4.63;;;22.50;62.30;;;;;;5067240;28;20469;-82
2023/07/04 07:31:27;;;;;;;10.63;4.53;;;22.50;62.30;;;;;;5084534;28;20552;-81
2023/07/04 07:34:02;;;;;;;12.30;4.90;;;22.40;62.30;;;;;;5090242;28;20456;-82
2023/07/04 07:36:37;;;;;;;10.47;4.77;;;22.30;62.30;;;;;;5086949;28;20449;-81
2023/07/04 07:39:06;;;;;;;11.57;4.50;;;22.30;62.50;;;;;;5086406;28;20456;-83
2023/07/04 07:41:41;;;;;;;9.40;4.27;;;22.30;62.30;;;;;;5073734;28;20453;-80
2023/07/04 07:44:10;;;;;;;11.67;4.93;;;22.30;62.20;;;;;;5072612;28;20457;-81
2023/07/04 07:46:38;;;;;;;8.87;4.40;;;22.30;62.20;;;;;;5089035;28;20520;-82
2023/07/04 07:49:07;;;;;;;11.43;4.57;;;22.20;62.20;;;;;;5088483;28;20481;-78
2023/07/04 07:51:37;;;;;;;12.80;4.40;;;22.20;62.20;;;;;;5072252;28;20453;-81
2023/07/04 07:54:07;;;;;;;11.07;5.10;;;22.20;62.20;;;;;;5065889;28;20495;-82
2023/07/04 07:56:40;;;;;;;9.23;4.50;;;22.20;62.20;;;;;;5086065;28;20436;-80
2023/07/04 07:59:09;;;;;;;12.40;5.00;;;22.30;62.10;;;;;;5088307;28;20449;-80
2023/07/04 08:01:37;;;;;;;13.70;4.70;;;22.30;62.00;;;;;;5085812;28;21034;-82
2023/07/04 08:04:06;;;;;;;9.70;4.17;;;22.30;62.00;;;;;;5072572;28;20457;-83
2023/07/04 08:06:38;;;;;;;10.47;4.23;;;22.40;62.00;;;;;;5083101;28;20454;-84
2023/07/04 08:09:08;;;;;;;9.90;4.43;;;22.40;62.00;;;;;;5085187;28;21459;-80
2023/07/04 08:11:37;;;;;;;10.37;5.13;;;22.50;61.90;;;;;;5089405;28;20464;-80
2023/07/04 08:14:05;;;;;;;10.47;4.60;;;22.60;61.70;;;;;;5083301;28;20464;-81
2023/07/04 08:16:42;;;;;;;11.10;4.30;;;22.60;61.50;;;;;;5083202;28;20453;-78
2023/07/04 08:19:10;;;;;;;11.93;4.80;;;22.60;61.30;;;;;;5080911;28;20456;-79
2023/07/04 08:21:40;;;;;;;12.13;5.07;;;22.70;61.20;;;;;;5069569;28;20460;-80
2023/07/04 08:24:12;;;;;;;9.67;4.17;;;22.70;60.60;;;;;;5086722;28;20458;-81
2023/07/04 08:26:44;;;;;;;11.20;4.90;;;22.70;60.40;;;;;;5085793;28;20536;-80
2023/07/04 08:29:13;;;;;;;11.93;5.10;;;22.70;60.20;;;;;;5080463;28;20477;-79
2023/07/04 08:31:41;;;;;;;9.87;4.70;;;22.60;60.10;;;;;;5087524;28;20536;-80
2023/07/04 08:34:11;;;;;;;11.60;5.20;;;22.60;60.20;;;;;;5082850;28;20869;-82
2023/07/04 08:36:41;;;;;;;11.17;5.27;;;22.60;59.90;;;;;;5086300;28;20444;-79
2023/07/04 08:39:10;;;;;;;12.87;5.10;;;22.60;59.70;;;;;;5087622;28;20488;-79
2023/07/04 08:41:45;;;;;;;8.80;4.23;;;22.50;59.20;;;;;;5075264;28;21240;-79
2023/07/04 08:44:18;;;;;;;9.90;4.70;;;22.50;59.10;;;;;;5084932;28;20487;-79
2023/07/04 08:46:48;;;;;;;10.90;4.80;;;22.50;59.20;;;;;;5077978;28;20460;-79
2023/07/04 08:49:30;;;;;;;10.30;4.60;;;22.50;59.20;;;;;;5083217;28;20496;-81
2023/07/04 08:52:05;;;;;;;12.60;4.73;;;22.60;59.00;;;;;;5090898;28;20467;-81
2023/07/04 08:54:35;;;;;;;9.33;4.30;;;22.60;59.00;;;;;;5082104;28;20947;-79
2023/07/04 08:57:13;;;;;;;10.13;4.17;;;22.60;59.10;;;;;;5082862;28;20463;-80
2023/07/04 08:59:44;;;;;;;8.97;4.77;;;22.70;58.80;;;;;;5086084;28;20812;-80
2023/07/04 09:02:39;;;;;;;12.20;5.17;;;22.70;58.50;;;;;;5059358;28;20554;-81
2023/07/04 09:05:16;;;;;;;12.07;5.23;;;22.70;58.40;;;;;;5085367;28;20461;-81
2023/07/04 09:07:54;;;;;;;10.00;5.00;;;22.80;58.50;;;;;;5085544;28;20510;-82
2023/07/04 09:10:32;;;;;;;13.77;4.97;;;22.80;58.20;;;;;;5083022;28;20480;-81
2023/07/04 09:13:01;;;;;;;9.20;5.00;;;22.80;57.80;;;;;;5080182;28;20456;-77
2023/07/04 09:15:34;;;;;;;10.57;4.70;;;22.70;57.80;;;;;;5086434;28;20441;-80
2023/07/04 09:18:11;;;;;;;9.87;4.53;;;22.70;57.80;;;;;;5083368;28;20455;-79
2023/07/04 09:20:56;;;;;;;10.40;4.57;;;22.80;57.70;;;;;;5082809;28;20494;-79
2023/07/04 09:23:26;;;;;;;8.70;4.77;;;22.80;57.60;;;;;;5084051;28;20530;-79
2023/07/04 09:25:56;;;;;;;11.07;5.00;;;22.80;57.40;;;;;;5084946;28;20440;-80
2023/07/04 09:28:26;;;;;;;10.60;4.47;;;22.90;57.40;;;;;;5085089;28;20450;-78
2023/07/04 09:30:58;;;;;;;11.07;4.90;;;22.90;57.20;;;;;;5081486;28;20479;-82
2023/07/04 09:33:28;;;;;;;8.60;4.30;;;22.90;57.00;;;;;;5059308;28;20462;-79
2023/07/04 09:35:57;;;;;;;16.03;5.37;;;23.00;56.80;;;;;;5065431;28;20470;-80
2023/07/04 09:38:27;;;;;;;12.03;4.63;;;23.00;56.30;;;;;;5063269;28;20547;-79
2023/07/04 09:40:55;;;;;;;11.90;4.73;;;23.00;55.80;;;;;;5047427;28;20469;-78
2023/07/04 09:43:31;;;;;;;12.10;5.57;;;23.00;55.80;;;;;;5052216;28;20467;-78
2023/07/04 09:46:14;;;;;;;10.80;4.70;;;23.00;55.80;;;;;;5071816;28;20440;-81
2023/07/04 09:48:42;;;;;;;14.57;5.03;;;23.10;55.70;;;;;;5067813;28;20555;-82
2023/07/04 09:51:28;;;;;;;10.20;5.07;;;23.20;55.60;;;;;;5059709;28;20485;-78
2023/07/04 09:54:12;;;;;;;9.73;4.20;;;23.20;55.10;;;;;;5063088;28;20437;-77
2023/07/04 09:56:41;;;;;;;9.63;5.00;;;23.20;54.90;;;;;;5063358;28;20451;-78
2023/07/04 09:59:12;;;;;;;10.90;4.93;;;23.20;54.90;;;;;;5067574;28;20501;-79
2023/07/04 10:01:41;;;;;;;9.70;5.17;;;23.20;54.90;;;;;;5079194;28;20469;-78
2023/07/04 10:04:11;;;;;;;13.37;4.63;;;23.30;54.80;;;;;;5086526;28;20449;-81
2023/07/04 10:06:43;;;;;;;10.40;5.50;;;23.30;54.60;;;;;;5084570;28;20493;-79
2023/07/04 10:09:20;;;;;;;9.50;5.20;;;23.40;54.10;;;;;;5071901;28;20548;-81
2023/07/04 10:11:50;;;;;;;11.87;5.43;;;23.40;54.00;;;;;;5085624;28;20444;-79
2023/07/04 10:14:31;;;;;;;10.30;5.70;;;23.50;53.90;;;;;;5071242;28;20448;-82
2023/07/04 10:17:09;;;;;;;11.07;5.97;;;23.50;53.70;;;;;;5089476;28;20551;-79
2023/07/04 10:19:41;;;;;;;10.63;5.50;;;23.60;53.60;;;;;;5090412;28;20452;-79
2023/07/04 10:22:10;;;;;;;9.77;5.30;;;23.60;53.10;;;;;;5073944;28;20468;-79
2023/07/04 10:24:39;;;;;;;10.43;6.37;;;23.60;52.80;;;;;;5072525;28;20444;-83
2023/07/04 10:27:13;;;;;;;12.17;6.03;;;23.60;52.90;;;;;;5090503;28;20466;-80
2023/07/04 10:29:45;;;;;;;11.53;6.30;;;23.60;52.50;;;;;;5072428;28;20449;-79
2023/07/04 10:32:15;;;;;;;10.83;7.10;;;23.60;52.40;;;;;;5083022;28;20470;-81
2023/07/04 10:34:47;;;;;;;11.70;7.23;;;23.60;51.90;;;;;;5072918;28;20444;-82
2023/07/04 10:37:23;;;;;;;13.37;6.40;;;23.60;51.80;;;;;;5085001;28;20456;-81
2023/07/04 10:39:57;;;;;;;11.07;6.77;;;23.70;51.50;;;;;;5085631;28;20474;-79
2023/07/04 10:42:29;;;;;;;11.87;7.03;;;23.70;51.70;;;;;;5068429;28;20453;-80
2023/07/04 10:44:58;;;;;;;11.90;6.83;;;23.80;51.50;;;;;;5090978;28;21202;-80
2023/07/04 10:47:30;;;;;;;12.33;7.10;;;23.80;51.40;;;;;;5087801;28;20458;-82
2023/07/04 10:50:03;;;;;;;12.17;6.27;;;23.80;51.20;;;;;;5069532;28;20613;-78
2023/07/04 10:52:33;;;;;;;11.10;6.10;;;23.90;51.30;;;;;;5085007;28;20445;-81
2023/07/04 10:55:06;;;;;;;11.70;6.40;;;24.00;51.20;;;;;;5068963;28;20460;-79
2023/07/04 10:57:36;;;;;;;11.23;6.73;;;24.00;51.10;;;;;;5090032;28;20953;-78
2023/07/04 11:00:12;;;;;;;11.00;6.83;;;24.10;50.90;;;;;;5074996;28;20464;-79
2023/07/04 11:02:46;;;;;;;12.30;6.83;;;24.10;50.90;;;;;;5078671;28;21280;-81
2023/07/04 11:05:19;;;;;;;12.07;7.20;;;24.20;50.80;;;;;;5067368;28;20453;-79
2023/07/04 11:07:52;;;;;;;11.60;7.50;;;24.20;50.90;;;;;;5087021;28;20445;-79
2023/07/04 11:10:24;;;;;;;16.33;7.73;;;24.20;50.80;;;;;;5067867;28;20849;-81
2023/07/04 11:12:55;;;;;;;12.20;7.07;;;24.20;50.60;;;;;;5087828;28;21298;-80
2023/07/04 11:15:34;;;;;;;10.40;6.23;;;24.20;50.60;;;;;;5068115;28;20544;-82
2023/07/04 11:18:02;;;;;;;14.60;6.80;;;24.20;50.40;;;;;;5088940;28;20456;-81
2023/07/04 11:20:55;;;;;;;13.07;7.83;;;24.20;50.50;;;;;;5088200;28;20536;-80
2023/07/04 11:23:23;;;;;;;12.80;7.17;;;24.20;50.50;;;;;;5071316;28;20445;-80
2023/07/04 11:26:08;;;;;;;14.10;7.83;;;24.20;50.80;;;;;;5078391;28;20456;-79
2023/07/04 11:28:45;;;;;;;12.50;7.70;;;24.20;50.80;;;;;;5088917;28;20453;-80
2023/07/04 11:31:24;;;;;;;12.43;7.37;;;24.30;50.70;;;;;;5068856;28;20472;-79
2023/07/04 11:34:05;;;;;;;13.17;8.10;;;24.30;50.60;;;;;;5088850;28;20458;-81
2023/07/04 11:36:37;;;;;;;17.83;8.40;;;24.30;50.40;;;;;;5069716;28;20966;-79
2023/07/04 11:39:21;;;;;;;13.37;8.50;;;24.30;50.30;;;;;;5087759;28;20448;-79
2023/07/04 11:41:51;;;;;;;12.60;8.43;;;24.30;50.10;;;;;;5084103;28;20960;-81
2023/07/04 11:44:29;;;;;;;12.50;8.33;;;24.20;49.90;;;;;;5088493;28;20450;-81
2023/07/04 11:47:00;;;;;;;11.43;7.40;;;24.30;49.70;;;;;;5082532;28;20484;-81
2023/07/04 11:49:30;;;;;;;12.57;8.10;;;24.20;49.80;;;;;;5086693;28;21305;-79
2023/07/04 11:52:10;;;;;;;15.80;7.97;;;24.30;49.70;;;;;;5087682;28;20476;-80
2023/07/04 11:54:38;;;;;;;14.13;8.70;;;24.30;49.40;;;;;;5080606;28;20456;-82
2023/07/04 11:57:09;;;;;;;16.37;8.20;;;24.30;49.60;;;;;;5086856;28;20449;-81
2023/07/04 11:59:44;;;;;;;12.50;9.03;;;24.40;49.80;;;;;;5084914;28;20455;-80
2023/07/04 12:02:28;;;;;;;12.43;8.30;;;24.50;49.80;;;;;;5078684;28;20461;-81
2023/07/04 12:04:57;;;;;;;12.03;7.63;;;24.60;49.70;;;;;;5086285;28;20441;-80
2023/07/04 12:07:32;;;;;;;14.17;8.70;;;24.50;49.40;;;;;;5072193;28;20969;-79
2023/07/04 12:10:07;;;;;;;12.60;8.37;;;24.50;48.80;;;;;;5085587;28;20466;-80
2023/07/04 12:12:38;;;;;;;11.77;7.87;;;24.50;48.90;;;;;;5082624;28;20991;-81
2023/07/04 12:15:09;;;;;;;12.37;8.20;;;24.50;49.10;;;;;;5070465;28;20445;-81
2023/07/04 12:17:40;;;;;;;12.13;7.50;;;24.50;49.30;;;;;;5080916;28;20455;-81
2023/07/04 12:20:13;;;;;;;15.37;8.57;;;24.60;49.40;;;;;;5086127;28;20487;-80
2023/07/04 12:22:45;;;;;;;13.30;7.50;;;24.60;49.30;;;;;;5086858;28;21106;-78
2023/07/04 12:25:23;;;;;;;10.73;7.40;;;24.70;49.40;;;;;;5083263;28;20799;-81
2023/07/04 12:27:56;;;;;;;12.03;8.30;;;24.60;49.40;;;;;;5063541;28;20830;-81
2023/07/04 12:30:24;;;;;;;14.30;7.40;;;24.60;49.30;;;;;;5080181;28;20484;-82
2023/07/04 12:33:05;;;;;;;11.70;7.13;;;24.60;49.40;;;;;;5068897;28;20441;-79
2023/07/04 12:35:37;;;;;;;12.50;7.93;;;24.60;49.60;;;;;;5086434;28;20536;-81
2023/07/04 12:38:08;;;;;;;12.90;7.83;;;24.60;49.60;;;;;;5084663;28;20531;-82
2023/07/04 12:40:36;;;;;;;12.50;7.80;;;24.60;49.50;;;;;;5068466;28;20903;-81
2023/07/04 12:43:06;;;;;;;13.57;7.60;;;24.70;49.70;;;;;;5073254;28;20457;-80
2023/07/04 12:45:37;;;;;;;12.30;8.00;;;24.70;49.90;;;;;;5086916;28;20460;-82
2023/07/04 12:48:25;;;;;;;16.07;7.27;;;24.70;50.00;;;;;;5080725;28;20480;-79
2023/07/04 12:50:56;;;;;;;12.73;7.77;;;24.80;50.10;;;;;;5081846;28;20949;-79
2023/07/04 12:53:24;;;;;;;14.43;7.50;;;24.90;50.30;;;;;;5084513;28;20461;-79
2023/07/04 12:55:56;;;;;;;13.10;8.10;;;24.90;50.20;;;;;;5067315;28;20821;-82
2023/07/04 12:58:26;;;;;;;14.70;7.63;;;25.00;50.20;;;;;;5082912;28;20457;-81
2023/07/04 13:01:03;;;;;;;14.13;8.17;;;25.00;50.00;;;;;;5070179;28;20849;-82